createdAt,value
2018-12-08T00:01:54.778Z,6.70
2018-12-08T00:04:21.138Z,6.70
2018-12-08T00:09:41.156Z,6.60
2018-12-08T00:12:07.485Z,6.60
2018-12-08T00:14:33.915Z,6.60
2018-12-08T00:17:00.369Z,6.70
2018-12-08T00:19:26.768Z,6.70
2018-12-08T00:21:53.247Z,6.80
2018-12-08T00:24:21.678Z,6.80
2018-12-08T00:26:49.509Z,6.80
2018-12-08T00:29:17.622Z,6.80
2018-12-08T00:31:44.694Z,6.80
2018-12-08T00:34:11.677Z,6.80
2018-12-08T00:36:38.427Z,6.80
2018-12-08T00:39:06.231Z,6.80
2018-12-08T00:44:25.257Z,6.80
2018-12-08T00:46:51.609Z,6.90
2018-12-08T00:49:20.398Z,6.90
2018-12-08T00:51:46.956Z,6.80
2018-12-08T00:54:13.247Z,6.80
2018-12-08T00:56:39.456Z,6.80
2018-12-08T00:59:05.773Z,6.80
2018-12-08T01:01:32.248Z,6.70
2018-12-08T01:03:58.628Z,6.70
2018-12-08T01:06:26.055Z,6.70
2018-12-08T01:08:52.369Z,6.70
2018-12-08T01:11:18.623Z,6.70
2018-12-08T01:13:44.935Z,6.60
2018-12-08T01:16:11.243Z,6.60
2018-12-08T01:18:37.512Z,6.60
2018-12-08T01:21:03.831Z,6.60
2018-12-08T01:23:30.141Z,6.60
2018-12-08T01:25:56.401Z,6.60
2018-12-08T01:28:22.708Z,6.70
2018-12-08T01:30:48.920Z,6.70
2018-12-08T01:33:15.364Z,6.70
2018-12-08T01:35:41.635Z,6.70
2018-12-08T01:38:07.968Z,6.60
2018-12-08T01:40:34.338Z,6.60
2018-12-08T01:43:07.681Z,6.60
2018-12-08T01:45:34.164Z,6.50
2018-12-08T01:48:00.439Z,6.50
2018-12-08T01:50:26.708Z,6.50
2018-12-08T01:52:52.988Z,6.40
2018-12-08T01:55:19.315Z,6.40
2018-12-08T01:57:45.632Z,6.40
2018-12-08T02:00:12.940Z,6.30
2018-12-08T02:02:39.355Z,6.40
2018-12-08T02:05:05.998Z,6.30
2018-12-08T02:07:32.606Z,6.30
2018-12-08T02:10:01.104Z,6.30
2018-12-08T02:12:27.447Z,6.30
2018-12-08T02:14:53.737Z,6.30
2018-12-08T02:17:19.970Z,6.20
2018-12-08T02:19:46.232Z,6.30
2018-12-08T02:22:14.583Z,6.40
2018-12-08T02:24:40.894Z,6.40
2018-12-08T02:27:07.331Z,6.50
2018-12-08T02:29:33.606Z,6.50
2018-12-08T02:31:59.894Z,6.60
2018-12-08T02:34:26.148Z,6.60
2018-12-08T02:36:52.408Z,6.60
2018-12-08T02:39:18.706Z,6.60
2018-12-08T02:41:44.912Z,6.70
2018-12-08T02:44:11.148Z,6.70
2018-12-08T02:46:37.367Z,6.70
2018-12-08T02:49:03.633Z,6.70
2018-12-08T02:51:29.951Z,6.80
2018-12-08T02:53:56.123Z,6.80
2018-12-08T02:56:22.366Z,6.80
2018-12-08T02:58:48.619Z,6.90
2018-12-08T03:01:14.881Z,6.90
2018-12-08T03:03:41.186Z,6.90
2018-12-08T03:06:07.429Z,6.90
2018-12-08T03:08:34.778Z,6.90
2018-12-08T03:11:01.099Z,6.90
2018-12-08T03:13:28.453Z,6.90
2018-12-08T03:15:54.670Z,6.90
2018-12-08T03:18:20.900Z,6.80
2018-12-08T03:20:47.135Z,6.80
2018-12-08T03:23:13.357Z,6.80
2018-12-08T03:25:39.682Z,6.70
2018-12-08T03:28:06.043Z,6.60
2018-12-08T03:30:32.303Z,6.60
2018-12-08T03:32:58.592Z,6.70
2018-12-08T03:35:24.804Z,6.70
2018-12-08T03:37:52.194Z,6.80
2018-12-08T03:40:18.525Z,6.80
2018-12-08T03:42:45.074Z,6.80
2018-12-08T03:45:11.553Z,6.80
2018-12-08T03:47:37.786Z,6.90
2018-12-08T03:50:05.220Z,6.90
2018-12-08T03:52:31.952Z,6.90
2018-12-08T03:54:58.290Z,6.90
2018-12-08T03:57:24.524Z,6.90
2018-12-08T03:59:50.766Z,6.90
2018-12-08T04:02:17.536Z,6.90
2018-12-08T04:04:43.836Z,6.90
2018-12-08T04:07:10.067Z,6.90
2018-12-08T04:09:36.315Z,6.90
2018-12-08T04:12:02.692Z,6.80
2018-12-08T04:14:29.407Z,6.80
2018-12-08T04:16:55.913Z,6.80
2018-12-08T04:19:22.326Z,6.70
2018-12-08T04:21:48.672Z,6.70
2018-12-08T04:24:15.066Z,6.70
2018-12-08T04:26:41.377Z,6.70
2018-12-08T04:29:07.647Z,6.60
2018-12-08T04:31:34.009Z,6.60
2018-12-08T04:34:00.305Z,6.60
2018-12-08T04:36:26.654Z,6.70
2018-12-08T04:38:52.977Z,6.70
2018-12-08T04:41:19.301Z,6.70
2018-12-08T04:43:45.579Z,6.70
2018-12-08T04:46:11.848Z,6.80
2018-12-08T04:48:38.200Z,6.80
2018-12-08T04:51:04.443Z,6.80
2018-12-08T04:53:30.739Z,6.80
2018-12-08T04:55:57.092Z,6.80
2018-12-08T04:58:23.399Z,6.90
2018-12-08T05:00:49.756Z,6.90
2018-12-08T05:03:16.106Z,6.90
2018-12-08T05:05:42.468Z,7.00
2018-12-08T05:08:08.721Z,7.00
2018-12-08T05:10:35.148Z,7.00
2018-12-08T05:13:01.499Z,7.00
2018-12-08T05:15:27.764Z,7.00
2018-12-08T05:17:54.054Z,7.00
2018-12-08T05:20:20.260Z,7.00
2018-12-08T05:22:46.498Z,7.10
2018-12-08T05:25:12.751Z,7.10
2018-12-08T05:27:38.980Z,7.10
2018-12-08T05:30:05.614Z,7.10
2018-12-08T05:32:32.073Z,7.10
2018-12-08T05:34:58.381Z,7.20
2018-12-08T05:37:24.605Z,7.20
2018-12-08T05:39:50.831Z,7.20
2018-12-08T05:42:17.060Z,7.20
2018-12-08T05:44:43.333Z,7.20
2018-12-08T05:47:09.744Z,7.20
2018-12-08T05:49:36.048Z,7.30
2018-12-08T05:52:02.298Z,7.30
2018-12-08T05:54:28.580Z,7.20
2018-12-08T05:56:54.982Z,7.20
2018-12-08T05:59:21.266Z,7.30
2018-12-08T06:01:47.499Z,7.30
2018-12-08T06:04:13.721Z,7.30
2018-12-08T06:06:39.950Z,7.30
2018-12-08T06:09:06.254Z,7.30
2018-12-08T06:11:32.614Z,7.30
2018-12-08T06:13:58.843Z,7.40
2018-12-08T06:16:25.087Z,7.40
2018-12-08T06:18:51.757Z,7.40
2018-12-08T06:21:32.013Z,7.50
2018-12-08T06:24:04.805Z,7.50
2018-12-08T06:26:34.762Z,7.50
2018-12-08T06:29:01.011Z,7.50
2018-12-08T06:31:27.285Z,7.50
2018-12-08T06:33:53.565Z,7.50
2018-12-08T06:36:19.885Z,7.50
2018-12-08T06:38:46.134Z,7.50
2018-12-08T06:41:12.426Z,7.60
2018-12-08T06:43:38.745Z,7.60
2018-12-08T06:46:05.025Z,7.60
2018-12-08T06:48:31.426Z,7.60
2018-12-08T06:50:57.788Z,7.60
2018-12-08T06:53:24.160Z,7.60
2018-12-08T06:55:50.457Z,7.70
2018-12-08T06:58:16.779Z,7.70
2018-12-08T07:00:43.086Z,7.70
2018-12-08T07:03:09.357Z,7.70
2018-12-08T07:05:35.869Z,7.70
2018-12-08T07:08:02.396Z,7.70
2018-12-08T07:10:28.701Z,7.70
2018-12-08T07:12:54.973Z,7.70
2018-12-08T07:15:21.327Z,7.70
2018-12-08T07:17:47.903Z,7.70
2018-12-08T07:20:14.386Z,7.70
2018-12-08T07:22:40.653Z,7.80
2018-12-08T07:25:06.971Z,7.80
2018-12-08T07:27:33.217Z,7.80
2018-12-08T07:29:59.550Z,7.80
2018-12-08T07:32:25.860Z,7.80
2018-12-08T07:34:52.221Z,7.80
2018-12-08T07:37:18.642Z,7.80
2018-12-08T07:39:46.093Z,7.80
2018-12-08T07:42:12.348Z,7.80
2018-12-08T07:44:38.674Z,7.80
2018-12-08T07:47:04.995Z,7.80
2018-12-08T07:49:31.280Z,7.80
2018-12-08T07:51:57.539Z,7.80
2018-12-08T07:54:23.911Z,7.80
2018-12-08T07:56:50.338Z,7.80
2018-12-08T07:59:16.762Z,7.80
2018-12-08T08:01:42.987Z,7.70
2018-12-08T08:04:09.565Z,7.70
2018-12-08T08:06:35.982Z,7.70
2018-12-08T08:09:03.327Z,7.70
2018-12-08T08:11:29.660Z,7.80
2018-12-08T08:13:55.926Z,7.80
2018-12-08T08:16:22.191Z,7.80
2018-12-08T08:18:48.515Z,7.90
2018-12-08T08:21:15.038Z,7.90
2018-12-08T08:23:41.326Z,7.80
2018-12-08T08:26:07.603Z,7.80
2018-12-08T08:28:34.902Z,7.70
2018-12-08T08:31:01.196Z,7.70
2018-12-08T08:33:27.477Z,7.60
2018-12-08T08:35:53.800Z,7.70
2018-12-08T08:38:20.137Z,7.60
2018-12-08T08:40:46.452Z,7.70
2018-12-08T08:43:12.750Z,7.70
2018-12-08T08:45:39.034Z,7.70
2018-12-08T08:48:05.295Z,7.70
2018-12-08T08:50:31.555Z,7.70
2018-12-08T08:52:57.812Z,7.80
2018-12-08T08:55:26.198Z,7.90
2018-12-08T08:57:52.734Z,7.90
2018-12-08T09:00:19.025Z,7.90
2018-12-08T09:02:45.274Z,8.00
2018-12-08T09:08:04.141Z,7.90
2018-12-08T09:10:30.494Z,7.90
2018-12-08T09:12:56.828Z,7.90
2018-12-08T09:15:23.129Z,8.00
2018-12-08T09:17:49.506Z,8.00
2018-12-08T09:20:15.976Z,7.90
2018-12-08T09:22:42.193Z,7.80
2018-12-08T09:25:08.619Z,7.80
2018-12-08T09:27:35.208Z,7.80
2018-12-08T09:30:01.642Z,7.80
2018-12-08T09:32:28.023Z,7.80
2018-12-08T09:34:54.369Z,7.80
2018-12-08T09:37:20.586Z,7.80
2018-12-08T09:39:46.827Z,7.90
2018-12-08T09:42:13.061Z,7.90
2018-12-08T09:44:39.386Z,8.00
2018-12-08T09:47:05.669Z,8.00
2018-12-08T09:49:31.983Z,8.10
2018-12-08T09:51:58.289Z,8.20
2018-12-08T09:54:24.632Z,8.10
2018-12-08T09:56:50.941Z,8.20
2018-12-08T09:59:17.215Z,8.20
2018-12-08T10:01:43.517Z,8.30
2018-12-08T10:04:12.966Z,8.40
2018-12-08T10:06:39.226Z,8.40
2018-12-08T10:09:05.864Z,8.50
2018-12-08T10:11:32.176Z,8.50
2018-12-08T10:13:58.427Z,8.50
2018-12-08T10:16:24.784Z,8.50
2018-12-08T10:18:51.187Z,8.60
2018-12-08T10:21:17.621Z,8.60
2018-12-08T10:23:43.880Z,8.60
2018-12-08T10:26:10.235Z,8.50
2018-12-08T10:28:36.516Z,8.50
2018-12-08T10:31:02.882Z,8.40
2018-12-08T10:33:29.270Z,8.40
2018-12-08T10:35:55.634Z,8.40
2018-12-08T10:38:21.989Z,8.20
2018-12-08T10:40:48.415Z,8.30
2018-12-08T10:43:14.757Z,8.30
2018-12-08T10:45:41.058Z,8.40
2018-12-08T10:48:07.380Z,8.40
2018-12-08T10:50:33.713Z,8.50
2018-12-08T10:53:00.122Z,8.50
2018-12-08T10:55:26.368Z,8.40
2018-12-08T10:57:52.701Z,8.40
2018-12-08T11:00:24.990Z,8.40
2018-12-08T11:02:52.133Z,8.30
2018-12-08T11:05:18.566Z,8.10
2018-12-08T11:07:44.884Z,7.70
2018-12-08T11:10:11.150Z,7.50
2018-12-08T11:12:37.571Z,7.40
2018-12-08T11:15:04.517Z,7.40
2018-12-08T11:17:30.860Z,7.30
2018-12-08T11:19:57.357Z,7.20
2018-12-08T11:22:24.839Z,7.20
2018-12-08T11:24:51.252Z,7.20
2018-12-08T11:27:17.644Z,7.30
2018-12-08T11:29:44.055Z,7.30
2018-12-08T11:32:10.429Z,7.40
2018-12-08T11:34:36.809Z,7.40
2018-12-08T11:37:03.231Z,7.30
2018-12-08T11:39:29.675Z,7.30
2018-12-08T11:41:56.313Z,7.30
2018-12-08T11:44:22.855Z,7.30
2018-12-08T11:46:49.498Z,7.20
2018-12-08T11:49:15.906Z,7.30
2018-12-08T11:51:42.498Z,7.20
2018-12-08T11:54:09.879Z,7.20
2018-12-08T11:56:36.226Z,7.30
2018-12-08T11:59:02.874Z,7.20
2018-12-08T12:01:30.148Z,7.30
2018-12-08T12:03:56.522Z,7.30
2018-12-08T12:06:22.833Z,7.20
2018-12-08T12:08:49.384Z,7.20
2018-12-08T12:11:15.573Z,7.10
2018-12-08T12:13:42.126Z,7.00
2018-12-08T12:16:08.490Z,7.00
2018-12-08T12:18:35.862Z,6.90
2018-12-08T12:21:03.239Z,6.90
2018-12-08T12:23:29.632Z,6.90
2018-12-08T12:26:10.378Z,6.90
2018-12-08T12:28:43.899Z,7.00
2018-12-08T12:31:10.347Z,7.00
2018-12-08T12:33:36.736Z,7.00
2018-12-08T12:36:03.108Z,7.00
2018-12-08T12:38:29.513Z,7.10
2018-12-08T12:40:55.884Z,7.20
2018-12-08T12:43:22.325Z,7.20
2018-12-08T12:45:48.822Z,7.40
2018-12-08T12:48:15.110Z,7.50
2018-12-08T12:50:41.419Z,7.50
2018-12-08T12:53:07.944Z,7.60
2018-12-08T12:55:34.262Z,7.60
2018-12-08T12:58:00.490Z,7.70
2018-12-08T13:00:26.771Z,7.70
2018-12-08T13:02:53.048Z,7.70
2018-12-08T13:05:19.352Z,7.70
2018-12-08T13:07:46.197Z,7.70
2018-12-08T13:10:12.555Z,7.70
2018-12-08T13:12:39.232Z,7.70
2018-12-08T13:15:05.846Z,7.80
2018-12-08T13:17:32.261Z,7.90
2018-12-08T13:19:58.580Z,7.90
2018-12-08T13:22:24.779Z,7.90
2018-12-08T13:24:51.139Z,8.00
2018-12-08T13:27:17.493Z,8.00
2018-12-08T13:29:43.875Z,8.00
2018-12-08T13:32:10.283Z,8.00
2018-12-08T13:34:36.590Z,8.00
2018-12-08T13:37:02.966Z,8.10
2018-12-08T13:39:29.463Z,8.10
2018-12-08T13:41:55.668Z,8.10
2018-12-08T13:44:33.901Z,8.10
2018-12-08T13:47:00.378Z,8.10
2018-12-08T13:49:26.610Z,7.90
2018-12-08T13:51:52.854Z,7.90
2018-12-08T13:54:24.055Z,7.90
2018-12-08T13:56:50.281Z,7.90
2018-12-08T13:59:16.632Z,7.90
2018-12-08T14:01:42.829Z,7.90
2018-12-08T14:04:09.075Z,7.90
2018-12-08T14:06:35.395Z,7.90
2018-12-08T14:09:01.632Z,8.00
2018-12-08T14:11:27.865Z,8.00
2018-12-08T14:13:54.095Z,8.00
2018-12-08T14:16:20.317Z,8.00
2018-12-08T14:18:46.607Z,8.00
2018-12-08T14:21:13.012Z,8.00
2018-12-08T14:23:39.245Z,8.00
2018-12-08T14:26:05.579Z,8.00
2018-12-08T14:28:31.957Z,8.00
2018-12-08T14:30:58.299Z,8.00
2018-12-08T14:33:24.606Z,8.00
2018-12-08T14:35:50.840Z,8.00
2018-12-08T14:38:17.122Z,8.00
2018-12-08T14:40:43.482Z,8.00
2018-12-08T14:43:09.724Z,8.00
2018-12-08T14:45:35.974Z,8.00
2018-12-08T14:48:02.396Z,8.00
2018-12-08T14:50:28.974Z,8.10
2018-12-08T14:52:55.334Z,8.10
2018-12-08T14:55:21.632Z,8.10
2018-12-08T14:57:48.064Z,8.20
2018-12-08T15:00:14.633Z,8.20
2018-12-08T15:02:41.696Z,8.20
2018-12-08T15:05:08.221Z,8.30
2018-12-08T15:07:34.863Z,8.40
2018-12-08T15:10:01.141Z,8.50
2018-12-08T15:12:28.502Z,8.50
2018-12-08T15:14:54.829Z,8.50
2018-12-08T15:17:21.100Z,8.50
2018-12-08T15:19:47.539Z,8.50
2018-12-08T15:22:13.883Z,8.50
2018-12-08T15:24:40.200Z,8.60
2018-12-08T15:27:06.486Z,8.60
2018-12-08T15:29:33.570Z,8.60
2018-12-08T15:32:00.858Z,8.60
2018-12-08T15:34:27.277Z,8.50
2018-12-08T15:36:53.495Z,8.60
2018-12-08T15:39:20.000Z,8.60
2018-12-08T15:41:46.259Z,8.60
2018-12-08T15:44:13.719Z,8.50
2018-12-08T15:46:40.357Z,8.60
2018-12-08T15:49:06.707Z,8.60
2018-12-08T15:51:33.083Z,8.60
2018-12-08T15:54:00.250Z,8.50
2018-12-08T15:56:26.700Z,8.50
2018-12-08T15:58:53.081Z,8.60
2018-12-08T16:01:20.429Z,8.60
2018-12-08T16:03:46.839Z,8.50
2018-12-08T16:06:13.174Z,8.60
2018-12-08T16:08:40.547Z,8.60
2018-12-08T16:11:06.875Z,8.60
2018-12-08T16:13:33.166Z,8.60
2018-12-08T16:15:59.481Z,8.60
2018-12-08T16:18:25.874Z,8.60
2018-12-08T16:20:52.217Z,8.60
2018-12-08T16:23:18.567Z,8.60
2018-12-08T16:25:44.856Z,8.60
2018-12-08T16:28:11.169Z,8.60
2018-12-08T16:30:37.494Z,8.50
2018-12-08T16:33:03.716Z,8.40
2018-12-08T16:35:29.989Z,8.50
2018-12-08T16:37:57.461Z,8.50
2018-12-08T16:40:23.873Z,8.50
2018-12-08T16:42:50.301Z,8.50
2018-12-08T16:45:16.685Z,8.50
2018-12-08T16:47:43.288Z,8.50
2018-12-08T16:50:09.804Z,8.50
2018-12-08T16:52:37.535Z,8.50
2018-12-08T16:55:04.200Z,8.50
2018-12-08T16:57:30.583Z,8.50
2018-12-08T16:59:56.832Z,8.40
2018-12-08T17:02:23.159Z,8.50
2018-12-08T17:04:50.655Z,8.50
2018-12-08T17:07:19.544Z,8.50
2018-12-08T17:09:45.975Z,8.60
2018-12-08T17:12:12.350Z,8.50
2018-12-08T17:14:38.590Z,8.60
2018-12-08T17:17:04.849Z,8.60
2018-12-08T17:19:31.202Z,8.60
2018-12-08T17:21:57.590Z,8.60
2018-12-08T17:24:23.975Z,8.60
2018-12-08T17:26:50.302Z,8.60
2018-12-08T17:29:16.997Z,8.50
2018-12-08T17:31:43.253Z,8.40
2018-12-08T17:34:09.602Z,8.30
2018-12-08T17:36:36.018Z,8.20
2018-12-08T17:39:04.293Z,8.30
2018-12-08T17:41:30.713Z,8.30
2018-12-08T17:43:56.989Z,8.30
2018-12-08T17:46:23.374Z,8.30
2018-12-08T17:48:49.590Z,8.40
2018-12-08T17:51:16.072Z,8.50
2018-12-08T17:53:42.504Z,8.60
2018-12-08T17:56:08.988Z,8.60
2018-12-08T17:58:35.229Z,8.60
2018-12-08T18:01:01.484Z,8.70
2018-12-08T18:03:27.716Z,8.80
2018-12-08T18:05:54.141Z,8.80
2018-12-08T18:08:20.504Z,8.80
2018-12-08T18:10:46.820Z,8.80
2018-12-08T18:13:13.069Z,8.80
2018-12-08T18:15:39.582Z,8.90
2018-12-08T18:20:58.562Z,8.80
2018-12-08T18:23:25.212Z,8.80
2018-12-08T18:25:51.544Z,8.70
2018-12-08T18:28:17.903Z,8.70
2018-12-08T18:30:44.120Z,8.70
2018-12-08T18:33:10.309Z,8.60
2018-12-08T18:35:36.663Z,8.60
2018-12-08T18:38:03.468Z,8.60
2018-12-08T18:40:32.086Z,8.50
2018-12-08T18:42:58.541Z,8.50
2018-12-08T18:45:24.851Z,8.50
2018-12-08T18:47:51.117Z,8.40
2018-12-08T18:53:10.023Z,8.40
2018-12-08T18:55:36.272Z,8.40
2018-12-08T18:58:02.627Z,8.40
2018-12-08T19:00:29.080Z,8.50
2018-12-08T19:05:47.854Z,8.50
2018-12-08T19:08:14.076Z,8.50
2018-12-08T19:10:40.266Z,8.40
2018-12-08T19:13:06.536Z,8.40
2018-12-08T19:15:32.768Z,8.40
2018-12-08T19:18:00.158Z,8.40
2018-12-08T19:20:26.772Z,8.50
2018-12-08T19:22:53.737Z,8.50
2018-12-08T19:25:19.966Z,8.50
2018-12-08T19:27:46.172Z,8.60
2018-12-08T19:30:12.498Z,8.60
2018-12-08T19:32:38.862Z,8.60
2018-12-08T19:35:05.415Z,8.60
2018-12-08T19:37:31.609Z,8.70
2018-12-08T19:39:57.974Z,8.70
2018-12-08T19:42:24.389Z,8.70
2018-12-08T19:44:50.607Z,8.70
2018-12-08T19:47:16.802Z,8.70
2018-12-08T19:49:43.137Z,8.80
2018-12-08T19:52:09.512Z,8.80
2018-12-08T19:54:35.721Z,8.80
2018-12-08T19:57:02.037Z,8.90
2018-12-08T19:59:28.250Z,8.90
2018-12-08T20:01:54.696Z,8.90
2018-12-08T20:04:21.028Z,8.90
2018-12-08T20:06:47.333Z,8.90
2018-12-08T20:09:13.871Z,8.80
2018-12-08T20:11:40.162Z,8.80
2018-12-08T20:14:06.382Z,8.80
2018-12-08T20:16:33.317Z,8.80
2018-12-08T20:18:59.674Z,8.70
2018-12-08T20:21:26.048Z,8.80
2018-12-08T20:23:52.274Z,8.80
2018-12-08T20:26:18.662Z,8.80
2018-12-08T20:28:44.955Z,8.90
2018-12-08T20:31:11.329Z,8.90
2018-12-08T20:33:37.659Z,8.90
2018-12-08T20:38:56.297Z,9.00
2018-12-08T20:41:22.512Z,8.90
2018-12-08T20:43:48.826Z,8.90
2018-12-08T20:46:15.027Z,8.80
2018-12-08T20:48:41.217Z,8.60
2018-12-08T20:51:07.380Z,8.40
2018-12-08T20:53:34.142Z,8.30
2018-12-08T20:56:00.411Z,8.20
2018-12-08T20:58:26.607Z,8.20
2018-12-08T21:00:52.792Z,8.10
2018-12-08T21:03:18.987Z,8.00
2018-12-08T21:05:45.208Z,8.00
2018-12-08T21:08:11.447Z,8.00
2018-12-08T21:10:37.808Z,8.00
2018-12-08T21:13:04.178Z,8.00
2018-12-08T21:15:31.187Z,8.00
2018-12-08T21:17:57.385Z,7.90
2018-12-08T21:20:23.725Z,7.90
2018-12-08T21:22:49.964Z,7.80
2018-12-08T21:25:16.158Z,7.70
2018-12-08T21:27:43.044Z,7.70
2018-12-08T21:30:09.250Z,7.60
2018-12-08T21:32:35.580Z,7.60
2018-12-08T21:35:01.915Z,7.60
2018-12-08T21:37:28.163Z,7.60
2018-12-08T21:39:54.468Z,7.60
2018-12-08T21:42:20.825Z,7.60
2018-12-08T21:47:39.432Z,7.60
2018-12-08T21:50:05.882Z,7.60
2018-12-08T21:52:32.106Z,7.60
2018-12-08T21:54:58.352Z,7.60
2018-12-08T21:57:24.716Z,7.60
2018-12-08T21:59:50.929Z,7.50
2018-12-08T22:02:17.222Z,7.60
2018-12-08T22:04:44.549Z,7.60
2018-12-08T22:07:10.874Z,7.60
2018-12-08T22:09:37.127Z,7.60
2018-12-08T22:12:18.796Z,7.60
2018-12-08T22:14:51.198Z,7.70
2018-12-08T22:17:18.384Z,7.70
2018-12-08T22:19:44.732Z,7.70
2018-12-08T22:22:10.958Z,7.70
2018-12-08T22:24:37.292Z,7.80
2018-12-08T22:27:03.622Z,7.80
2018-12-08T22:29:29.832Z,7.80
2018-12-08T22:31:57.193Z,7.80
2018-12-08T22:34:23.581Z,7.80
2018-12-08T22:36:50.306Z,7.80
2018-12-08T22:39:16.609Z,7.90
2018-12-08T22:41:42.845Z,7.90
2018-12-08T22:44:09.063Z,7.90
2018-12-08T22:46:35.488Z,8.00
2018-12-08T22:49:01.746Z,8.00
2018-12-08T22:51:28.036Z,8.00
2018-12-08T22:53:54.304Z,8.00
2018-12-08T22:56:20.630Z,8.10
2018-12-08T22:58:46.878Z,8.10
2018-12-08T23:01:13.336Z,8.00
2018-12-08T23:03:39.651Z,8.00
2018-12-08T23:06:05.958Z,8.10
2018-12-08T23:08:32.179Z,8.10
2018-12-08T23:11:01.384Z,8.20
2018-12-08T23:13:28.063Z,8.20
2018-12-08T23:15:54.320Z,8.20
2018-12-08T23:18:20.590Z,8.30
2018-12-08T23:20:47.603Z,8.30
2018-12-08T23:23:14.041Z,8.40
2018-12-08T23:25:40.322Z,8.40
2018-12-08T23:28:06.676Z,8.40
2018-12-08T23:30:34.363Z,8.50
2018-12-08T23:33:00.734Z,8.50
2018-12-08T23:35:28.002Z,8.50
2018-12-08T23:37:54.690Z,8.60
2018-12-08T23:40:21.459Z,8.60
2018-12-08T23:42:48.090Z,8.60
2018-12-08T23:45:15.004Z,8.60
2018-12-08T23:47:41.321Z,8.70
2018-12-08T23:50:07.827Z,8.70
2018-12-08T23:52:34.117Z,8.70
2018-12-08T23:55:00.393Z,8.80
2018-12-08T23:57:27.413Z,8.80
2018-12-08T23:59:53.659Z,8.80
